Time;durP1;ratioP1;P1;durP2;ratioP2;P2;SDS_P1;SDS_P2;PMS_P1;PMS_P2;Temp;Humidity;BMP_temperature;BMP_pressure;BME280_temperature;BME280_humidity;BME280_pressure;Samples;Min_cycle;Max_cycle;Signal;HPM_P1;HPM_P2
2022/03/16 00:04:18;;;;;;;32.63;28.63;;;10.60;99.90;;;;;;10441205;28;20723;-80
2022/03/16 00:09:20;;;;;;;32.27;28.73;;;10.60;99.90;;;;;;10441150;28;20251;-81
2022/03/16 00:14:23;;;;;;;31.97;28.60;;;10.60;99.90;;;;;;10458672;28;20228;-82
2022/03/16 00:19:25;;;;;;;30.63;27.30;;;10.60;99.90;;;;;;10462142;28;20197;-82
2022/03/16 00:24:28;;;;;;;33.40;28.77;;;10.60;99.90;;;;;;10481626;28;20216;-81
2022/03/16 00:29:31;;;;;;;32.63;29.20;;;10.60;99.90;;;;;;10480025;28;20263;-80
2022/03/16 00:34:33;;;;;;;35.63;31.33;;;10.60;99.90;;;;;;10457615;28;20216;-81
2022/03/16 00:39:36;;;;;;;36.93;32.60;;;10.60;99.90;;;;;;10445874;28;20316;-82
2022/03/16 00:44:39;;;;;;;38.07;32.23;;;10.60;99.90;;;;;;10450060;28;20300;-82
2022/03/16 00:49:43;;;;;;;37.80;33.40;;;10.60;99.90;;;;;;10440280;28;20247;-81
2022/03/16 00:54:45;;;;;;;31.93;26.30;;;10.60;99.90;;;;;;10464206;28;20655;-81
2022/03/16 00:59:48;;;;;;;41.17;35.40;;;10.50;99.90;;;;;;10473275;28;20295;-81
2022/03/16 01:04:52;;;;;;;39.43;35.13;;;10.50;99.90;;;;;;10487225;28;20217;-79
2022/03/16 01:09:54;;;;;;;40.60;36.13;;;10.50;99.90;;;;;;10485859;28;20282;-83
2022/03/16 01:14:57;;;;;;;44.03;35.67;;;10.50;99.90;;;;;;10470474;28;20236;-82
2022/03/16 01:19:59;;;;;;;42.77;36.57;;;10.50;99.90;;;;;;10469773;28;20196;-84
2022/03/16 01:25:01;;;;;;;49.17;37.43;;;10.50;99.90;;;;;;10452364;28;20221;-81
2022/03/16 01:30:06;;;;;;;44.87;37.90;;;10.50;99.90;;;;;;10452964;28;20312;-81
2022/03/16 01:35:09;;;;;;;50.20;39.77;;;10.50;99.90;;;;;;10443560;28;20303;-82
2022/03/16 01:40:13;;;;;;;46.80;39.17;;;10.50;99.90;;;;;;10470090;28;20197;-83
2022/03/16 01:45:16;;;;;;;50.00;39.93;;;10.50;99.90;;;;;;10472256;28;20240;-83
2022/03/16 01:50:18;;;;;;;47.30;38.30;;;10.40;99.90;;;;;;10449151;28;20245;-82
2022/03/16 01:55:20;;;;;;;54.17;41.87;;;10.50;99.90;;;;;;10448292;28;20321;-83
2022/03/16 02:00:24;;;;;;;53.43;41.80;;;10.40;99.90;;;;;;10456166;28;20193;-81
2022/03/16 02:05:28;;;;;;;55.43;42.27;;;10.40;99.90;;;;;;10434730;28;20217;-81
2022/03/16 02:10:33;;;;;;;54.60;41.70;;;10.40;99.90;;;;;;10475745;28;20859;-83
2022/03/16 02:15:37;;;;;;;57.20;42.03;;;10.40;99.90;;;;;;10469746;28;20274;-81
2022/03/16 02:20:39;;;;;;;54.07;42.23;;;10.40;99.90;;;;;;10478658;28;20199;-80
2022/03/16 02:25:50;;;;;;;56.07;42.50;;;10.40;99.90;;;;;;10460997;28;20203;-81
2022/03/16 02:30:53;;;;;;;55.17;43.87;;;10.50;99.90;;;;;;10457222;28;20227;-84
2022/03/16 02:35:55;;;;;;;54.67;43.30;;;10.50;99.90;;;;;;10460582;28;20197;-81
2022/03/16 02:40:58;;;;;;;52.03;41.70;;;10.50;99.90;;;;;;10476408;28;20218;-83
2022/03/16 02:46:00;;;;;;;58.10;44.60;;;10.40;99.90;;;;;;10475069;28;20221;-80
2022/03/16 02:51:03;;;;;;;56.57;43.47;;;10.50;99.90;;;;;;10498500;22;20274;-84
2022/03/16 02:56:07;;;;;;;58.80;44.13;;;10.50;99.90;;;;;;10478084;28;21783;-84
2022/03/16 03:01:09;;;;;;;58.77;42.03;;;10.50;99.90;;;;;;10484866;28;20607;-84
2022/03/16 03:06:11;;;;;;;63.93;45.53;;;10.50;99.90;;;;;;10491552;28;20229;-83
2022/03/16 03:11:14;;;;;;;62.23;44.40;;;10.50;99.90;;;;;;10484417;28;20216;-82
2022/03/16 03:16:16;;;;;;;57.73;42.87;;;10.50;99.90;;;;;;10517639;28;20209;-83
2022/03/16 03:21:18;;;;;;;62.67;44.40;;;10.40;99.90;;;;;;10479167;28;20215;-83
2022/03/16 03:26:22;;;;;;;63.70;45.27;;;10.50;99.90;;;;;;10514366;28;20205;-83
2022/03/16 03:31:24;;;;;;;64.03;45.53;;;10.40;99.90;;;;;;10497243;28;20308;-81
2022/03/16 03:36:26;;;;;;;64.43;46.87;;;10.40;99.90;;;;;;10500629;28;20192;-81
2022/03/16 03:41:30;;;;;;;63.47;48.07;;;10.50;99.90;;;;;;10508250;28;20694;-83
2022/03/16 03:46:32;;;;;;;58.60;40.27;;;10.40;99.90;;;;;;10506168;28;20655;-84
2022/03/16 03:51:34;;;;;;;63.90;47.17;;;10.40;99.90;;;;;;10489923;28;20212;-84
2022/03/16 03:56:37;;;;;;;59.20;43.60;;;10.40;99.90;;;;;;10489045;28;20655;-83
2022/03/16 04:01:40;;;;;;;68.23;46.87;;;10.40;99.90;;;;;;10505165;28;20219;-84
2022/03/16 04:06:42;;;;;;;62.77;45.57;;;10.50;99.90;;;;;;10490369;28;20208;-83
2022/03/16 04:11:45;;;;;;;66.47;47.87;;;10.50;99.90;;;;;;10510327;28;20216;-84
2022/03/16 04:16:47;;;;;;;60.07;43.00;;;10.50;99.90;;;;;;10497335;28;20244;-84
2022/03/16 04:21:49;;;;;;;64.67;47.10;;;10.50;99.90;;;;;;10511029;28;20804;-84
2022/03/16 04:26:53;;;;;;;61.20;44.90;;;10.50;99.90;;;;;;10503519;28;20205;-84
2022/03/16 04:31:55;;;;;;;62.07;46.70;;;10.60;99.90;;;;;;10519023;28;20307;-84
2022/03/16 04:36:57;;;;;;;61.60;45.47;;;10.60;99.90;;;;;;10515512;28;20204;-84
2022/03/16 04:42:01;;;;;;;63.77;45.43;;;10.60;99.90;;;;;;10528742;28;20243;-84
2022/03/16 04:47:03;;;;;;;63.67;45.50;;;10.60;99.90;;;;;;10502614;28;20203;-84
2022/03/16 04:52:06;;;;;;;58.50;44.40;;;10.60;99.90;;;;;;10518679;28;20227;-84
2022/03/16 04:57:12;;;;;;;65.37;46.70;;;10.60;99.90;;;;;;10497840;28;20619;-84
2022/03/16 05:02:14;;;;;;;61.77;45.47;;;10.50;99.90;;;;;;10509798;28;20252;-84
2022/03/16 05:07:16;;;;;;;63.23;44.30;;;10.50;99.90;;;;;;10505299;28;20228;-84
2022/03/16 05:12:20;;;;;;;64.30;45.03;;;10.60;99.90;;;;;;10535482;28;20767;-84
2022/03/16 05:17:22;;;;;;;66.53;47.33;;;10.50;99.90;;;;;;10541239;28;20192;-84
2022/03/16 05:22:24;;;;;;;61.03;45.10;;;10.50;99.90;;;;;;10513077;28;20210;-84
2022/03/16 05:27:28;;;;;;;64.97;46.40;;;10.50;99.90;;;;;;10542337;28;20613;-83
2022/03/16 05:32:31;;;;;;;71.03;49.30;;;10.50;99.90;;;;;;10515223;28;20248;-84
2022/03/16 05:37:34;;;;;;;64.20;45.90;;;10.50;99.90;;;;;;10520577;28;20196;-84
2022/03/16 05:42:37;;;;;;;65.27;46.40;;;10.50;99.90;;;;;;10502642;28;20229;-84
2022/03/16 05:47:40;;;;;;;63.00;44.73;;;10.50;99.90;;;;;;10499863;28;20192;-84
2022/03/16 05:52:43;;;;;;;70.67;49.40;;;10.50;99.90;;;;;;10512561;28;20257;-84
2022/03/16 05:57:46;;;;;;;67.60;45.97;;;10.50;99.90;;;;;;10493355;28;20206;-84
2022/03/16 06:02:50;;;;;;;65.17;47.40;;;10.50;99.90;;;;;;10498456;28;20216;-85
2022/03/16 06:07:52;;;;;;;52.97;37.80;;;10.50;99.90;;;;;;10487767;28;20314;-84
2022/03/16 06:12:57;;;;;;;59.83;44.47;;;10.60;99.90;;;;;;10485698;28;20311;-84
2022/03/16 06:18:00;;;;;;;60.87;43.57;;;10.60;99.90;;;;;;10484183;28;20555;-83
2022/03/16 06:23:04;;;;;;;62.70;46.97;;;10.60;99.90;;;;;;10504559;28;20228;-84
2022/03/16 06:28:08;;;;;;;63.47;44.50;;;10.60;99.90;;;;;;10493610;28;20208;-84
2022/03/16 06:33:10;;;;;;;65.83;45.10;;;10.60;99.90;;;;;;10510831;28;20220;-84
2022/03/16 06:38:12;;;;;;;70.20;47.80;;;10.60;99.90;;;;;;10507918;28;20191;-85
2022/03/16 06:43:16;;;;;;;74.83;50.90;;;10.70;99.90;;;;;;10511518;28;20250;-85
2022/03/16 06:48:21;;;;;;;70.00;48.83;;;10.70;99.90;;;;;;10490498;28;20210;-85
2022/03/16 06:53:23;;;;;;;65.17;46.90;;;10.70;99.90;;;;;;10503242;28;20641;-85
2022/03/16 06:58:26;;;;;;;63.50;47.17;;;10.70;99.90;;;;;;10485637;28;20204;-85
2022/03/16 07:03:29;;;;;;;67.97;45.40;;;10.80;99.90;;;;;;10493613;28;20216;-85
2022/03/16 07:08:31;;;;;;;72.20;47.73;;;10.80;99.90;;;;;;10474363;28;20660;-83
2022/03/16 07:13:34;;;;;;;69.77;44.93;;;10.80;99.90;;;;;;10481575;28;20231;-85
2022/03/16 07:18:36;;;;;;;60.20;45.27;;;10.90;99.90;;;;;;10482888;28;20184;-85
2022/03/16 07:23:39;;;;;;;71.43;48.23;;;10.90;99.90;;;;;;10454083;28;20242;-84
2022/03/16 07:28:42;;;;;;;67.47;45.37;;;11.00;99.90;;;;;;10491096;28;20687;-83
2022/03/16 07:33:45;;;;;;;67.93;44.73;;;11.00;99.90;;;;;;10469815;28;20274;-85
2022/03/16 07:38:47;;;;;;;63.57;44.00;;;11.00;99.90;;;;;;10476434;28;20283;-84
2022/03/16 07:43:50;;;;;;;58.93;42.67;;;11.00;99.90;;;;;;10477737;28;20292;-83
2022/03/16 07:48:53;;;;;;;59.03;42.70;;;11.10;99.90;;;;;;10469158;28;20262;-84
2022/03/16 07:53:55;;;;;;;49.63;35.33;;;11.10;99.90;;;;;;10467419;28;20228;-84
2022/03/16 07:59:01;;;;;;;47.53;37.23;;;11.00;99.90;;;;;;10461666;28;20189;-83
2022/03/16 08:04:06;;;;;;;47.20;35.67;;;11.00;99.90;;;;;;10470594;28;20319;-85
2022/03/16 08:09:08;;;;;;;45.33;35.10;;;10.90;99.90;;;;;;10473276;28;20208;-86
2022/03/16 08:14:12;;;;;;;41.27;33.87;;;10.90;99.90;;;;;;10467452;28;20282;-85
2022/03/16 08:19:15;;;;;;;42.00;33.57;;;10.90;99.90;;;;;;10479785;28;20667;-86
2022/03/16 08:24:17;;;;;;;38.50;31.67;;;10.90;99.90;;;;;;10494603;28;20251;-86
2022/03/16 08:29:21;;;;;;;41.27;31.23;;;10.90;99.90;;;;;;10458191;28;20312;-86
2022/03/16 08:34:23;;;;;;;41.23;33.80;;;10.90;99.90;;;;;;10497305;28;20311;-85
2022/03/16 08:39:25;;;;;;;39.90;32.00;;;10.90;99.90;;;;;;10490197;28;20200;-86
2022/03/16 08:44:29;;;;;;;37.90;32.30;;;11.00;99.90;;;;;;10474259;28;20220;-86
2022/03/16 08:49:31;;;;;;;43.27;35.60;;;11.10;99.90;;;;;;10475508;28;20211;-85
2022/03/16 08:54:34;;;;;;;40.10;32.37;;;11.30;99.90;;;;;;10507146;22;20270;-85
2022/03/16 08:59:37;;;;;;;39.50;32.53;;;11.30;99.90;;;;;;10491087;28;20192;-84
2022/03/16 09:04:39;;;;;;;37.87;31.50;;;11.30;99.90;;;;;;10479650;28;20224;-84
2022/03/16 09:09:42;;;;;;;36.47;31.40;;;11.40;99.90;;;;;;10469787;28;20216;-85
2022/03/16 09:14:45;;;;;;;35.30;29.40;;;11.50;99.90;;;;;;10484265;28;20664;-83
2022/03/16 09:19:48;;;;;;;36.10;30.90;;;11.60;99.90;;;;;;10484853;28;20289;-84
2022/03/16 09:24:51;;;;;;;37.67;30.83;;;11.60;99.90;;;;;;10468876;28;20224;-82
2022/03/16 09:29:55;;;;;;;35.70;29.90;;;11.60;99.90;;;;;;10495369;28;20740;-82
2022/03/16 09:34:59;;;;;;;34.43;29.40;;;11.70;99.90;;;;;;10478244;28;20225;-82
2022/03/16 09:40:02;;;;;;;37.53;31.10;;;11.80;99.90;;;;;;10473884;28;20204;-82
2022/03/16 09:45:10;;;;;;;34.87;31.07;;;11.90;99.90;;;;;;10490347;28;20224;-82
2022/03/16 09:50:13;;;;;;;35.53;31.00;;;11.90;99.90;;;;;;10497882;28;20231;-82
2022/03/16 09:55:17;;;;;;;34.30;28.53;;;12.00;99.90;;;;;;10511200;28;20291;-81
2022/03/16 10:00:20;;;;;;;32.77;28.23;;;12.00;99.90;;;;;;10515799;28;20196;-82
2022/03/16 10:05:26;;;;;;;36.77;31.33;;;12.10;99.90;;;;;;10478141;28;20231;-82
2022/03/16 10:16:16;;;;;;;32.03;27.33;;;12.20;99.90;;;;;;10509993;28;20289;-82
2022/03/16 10:21:27;;;;;;;27.90;24.30;;;12.30;99.90;;;;;;10481285;28;20216;-81
2022/03/16 10:26:29;;;;;;;28.37;25.03;;;12.30;99.90;;;;;;10512813;28;20201;-81
2022/03/16 10:31:35;;;;;;;26.57;23.77;;;12.40;99.90;;;;;;10499962;28;20311;-82
2022/03/16 10:36:39;;;;;;;26.07;22.53;;;12.50;99.90;;;;;;10489956;28;20545;-80
2022/03/16 10:47:02;;;;;;;28.00;23.87;;;12.70;99.90;;;;;;10489773;28;20204;-82
2022/03/16 10:52:07;;;;;;;24.07;21.60;;;12.90;99.90;;;;;;10485555;28;20292;-81
2022/03/16 10:57:16;;;;;;;22.67;20.30;;;12.90;99.90;;;;;;10479427;28;20268;-81
2022/03/16 11:02:22;;;;;;;22.50;20.20;;;12.80;99.90;;;;;;10464763;28;20228;-81
2022/03/16 11:07:26;;;;;;;22.10;19.77;;;12.80;99.90;;;;;;10467776;28;20618;-81
2022/03/16 11:17:51;;;;;;;23.73;21.30;;;12.80;99.90;;;;;;10487635;28;20208;-79
2022/03/16 11:28:29;;;;;;;23.33;20.73;;;13.00;99.90;;;;;;10499631;28;20191;-81
2022/03/16 11:33:49;;;;;;;24.17;21.57;;;12.90;99.90;;;;;;10499470;28;20251;-81
2022/03/16 11:38:52;;;;;;;23.63;21.23;;;12.90;99.90;;;;;;10474435;28;20204;-82
2022/03/16 11:44:00;;;;;;;24.27;21.60;;;12.90;99.90;;;;;;10475226;28;20224;-82
2022/03/16 11:49:04;;;;;;;25.63;23.07;;;12.90;99.90;;;;;;10507197;28;20228;-81
2022/03/16 11:54:11;;;;;;;24.03;20.00;;;12.90;99.90;;;;;;10509671;28;20224;-79
2022/03/16 11:59:36;;;;;;;25.10;20.97;;;12.90;99.90;;;;;;10490491;28;20279;-81
2022/03/16 12:04:43;;;;;;;24.77;21.03;;;13.00;99.90;;;;;;10500718;28;20215;-84
2022/03/16 12:09:46;;;;;;;24.70;22.20;;;13.20;99.90;;;;;;10504314;28;20889;-84
2022/03/16 12:14:58;;;;;;;25.83;23.03;;;13.30;99.90;;;;;;10491192;28;20795;-82
2022/03/16 12:20:14;;;;;;;25.67;21.37;;;13.40;99.90;;;;;;10480321;28;20188;-83
2022/03/16 12:25:35;;;;;;;23.77;21.33;;;13.40;99.90;;;;;;10476608;28;20238;-84
2022/03/16 12:30:41;;;;;;;23.87;21.37;;;13.40;99.90;;;;;;10521839;28;20240;-84
2022/03/16 12:35:44;;;;;;;23.67;21.07;;;13.30;99.90;;;;;;10503925;28;20231;-84
2022/03/16 12:46:13;;;;;;;22.70;20.40;;;13.30;99.90;;;;;;10510328;28;20226;-80
2022/03/16 12:51:33;;;;;;;22.63;20.33;;;13.30;99.90;;;;;;10498857;28;20274;-82
2022/03/16 12:56:39;;;;;;;21.40;19.10;;;13.40;99.90;;;;;;10491821;28;20201;-83
2022/03/16 13:01:41;;;;;;;22.10;19.80;;;13.40;99.90;;;;;;10495049;28;20307;-81
2022/03/16 13:06:44;;;;;;;20.83;18.70;;;13.50;99.90;;;;;;10505947;28;20204;-83
2022/03/16 13:11:47;;;;;;;25.60;20.93;;;13.50;99.90;;;;;;10502874;28;20257;-83
2022/03/16 13:16:55;;;;;;;19.60;17.67;;;13.60;99.90;;;;;;10513686;28;20228;-81
2022/03/16 13:22:04;;;;;;;25.00;18.80;;;13.60;99.90;;;;;;10515269;28;20223;-82
2022/03/16 13:27:08;;;;;;;22.83;20.70;;;13.70;99.90;;;;;;10504439;28;20273;-83
2022/03/16 13:32:10;;;;;;;21.10;18.87;;;13.80;99.90;;;;;;10492866;28;20224;-83
2022/03/16 13:37:25;;;;;;;18.57;16.67;;;14.00;99.90;;;;;;10510871;28;20200;-82
2022/03/16 13:42:31;;;;;;;20.53;18.43;;;14.00;99.90;;;;;;10507362;28;20211;-82
2022/03/16 13:47:35;;;;;;;21.30;16.30;;;14.10;99.90;;;;;;10498158;28;20545;-82
2022/03/16 13:52:40;;;;;;;19.47;17.37;;;14.10;99.90;;;;;;10522555;28;20278;-83
2022/03/16 13:57:43;;;;;;;22.73;19.70;;;14.10;99.90;;;;;;10503755;28;20224;-82
2022/03/16 14:02:46;;;;;;;18.70;16.90;;;14.10;99.90;;;;;;10503060;28;20225;-82
2022/03/16 14:07:52;;;;;;;20.53;17.43;;;14.10;99.90;;;;;;10489106;28;20234;-81
2022/03/16 14:13:03;;;;;;;21.67;18.77;;;14.00;99.90;;;;;;10484306;28;20244;-83
2022/03/16 14:18:10;;;;;;;20.53;18.43;;;13.90;99.90;;;;;;10484361;28;20196;-83
2022/03/16 14:23:13;;;;;;;18.60;16.80;;;13.80;99.90;;;;;;10492356;28;20240;-82
2022/03/16 14:28:16;;;;;;;19.07;17.17;;;13.70;99.90;;;;;;10504088;28;20200;-83
2022/03/16 14:33:22;;;;;;;21.20;18.57;;;13.80;99.90;;;;;;10509602;28;20244;-83
2022/03/16 14:38:26;;;;;;;20.17;18.10;;;13.80;99.90;;;;;;10478089;28;20282;-83
2022/03/16 14:43:30;;;;;;;22.30;20.00;;;13.70;99.90;;;;;;10474046;28;20216;-82
2022/03/16 14:48:32;;;;;;;21.00;18.87;;;13.70;99.90;;;;;;10523764;28;20606;-83
2022/03/16 14:53:36;;;;;;;21.57;19.37;;;13.70;99.90;;;;;;10485118;28;20224;-80
2022/03/16 14:58:38;;;;;;;18.97;16.97;;;13.70;99.90;;;;;;10516708;28;20215;-80
2022/03/16 15:03:40;;;;;;;23.63;21.23;;;13.70;99.90;;;;;;10504629;28;20571;-80
2022/03/16 15:08:44;;;;;;;25.00;22.40;;;13.60;99.90;;;;;;10504936;28;20287;-80
2022/03/16 15:13:46;;;;;;;22.43;20.13;;;13.60;99.90;;;;;;10503687;28;20227;-80
2022/03/16 15:18:48;;;;;;;19.70;17.80;;;13.50;99.90;;;;;;10519182;28;20201;-80
2022/03/16 15:23:51;;;;;;;18.33;16.73;;;13.50;99.90;;;;;;10500121;28;20228;-80
2022/03/16 15:28:53;;;;;;;18.90;17.00;;;13.40;99.90;;;;;;10501679;28;20223;-80
2022/03/16 15:33:55;;;;;;;20.50;18.50;;;13.30;99.90;;;;;;10522433;28;20225;-80
2022/03/16 15:38:59;;;;;;;18.63;16.83;;;13.30;99.90;;;;;;10515438;28;20202;-80
2022/03/16 15:44:01;;;;;;;20.30;18.30;;;13.30;99.90;;;;;;10499679;28;20220;-80
2022/03/16 15:49:03;;;;;;;20.50;18.50;;;13.30;99.90;;;;;;10487465;28;20229;-80
2022/03/16 15:54:07;;;;;;;20.37;18.47;;;13.30;99.90;;;;;;10472362;28;20255;-80
2022/03/16 15:59:10;;;;;;;20.27;18.37;;;13.20;99.90;;;;;;10483029;28;20204;-80
2022/03/16 16:04:12;;;;;;;20.50;18.60;;;13.10;99.90;;;;;;10502722;28;20212;-80
2022/03/16 16:09:17;;;;;;;21.57;19.37;;;13.10;99.90;;;;;;10503558;28;20204;-80
2022/03/16 16:14:19;;;;;;;20.27;18.13;;;13.00;99.90;;;;;;10517554;28;20396;-80
2022/03/16 16:19:21;;;;;;;21.80;19.80;;;13.00;99.90;;;;;;10507473;28;20556;-80
2022/03/16 16:24:25;;;;;;;22.50;20.30;;;12.90;99.90;;;;;;10507067;28;20236;-80
2022/03/16 16:29:33;;;;;;;22.13;20.03;;;12.90;99.90;;;;;;10531395;28;20201;-81
2022/03/16 16:34:36;;;;;;;21.40;19.20;;;12.90;99.90;;;;;;10527687;28;20237;-82
2022/03/16 16:39:39;;;;;;;21.47;19.23;;;12.80;99.90;;;;;;10494179;28;20683;-82
2022/03/16 16:44:41;;;;;;;20.30;18.30;;;12.80;99.90;;;;;;10488039;28;20274;-82
2022/03/16 16:49:44;;;;;;;20.00;18.00;;;12.70;99.90;;;;;;10498353;28;20287;-82
2022/03/16 16:54:47;;;;;;;20.30;18.10;;;12.60;99.90;;;;;;10506304;28;20228;-83
2022/03/16 16:59:50;;;;;;;21.97;19.00;;;12.60;99.90;;;;;;10487432;28;20231;-81
2022/03/16 17:04:52;;;;;;;19.70;17.80;;;12.60;99.90;;;;;;10503559;28;20225;-81
2022/03/16 17:09:55;;;;;;;21.50;19.40;;;12.50;99.90;;;;;;10514646;28;20257;-82
2022/03/16 17:15:00;;;;;;;21.33;19.13;;;12.40;99.90;;;;;;10486553;28;20217;-81
2022/03/16 17:20:02;;;;;;;19.37;17.47;;;12.40;99.90;;;;;;10482041;28;20197;-81
2022/03/16 17:25:06;;;;;;;21.90;19.80;;;12.40;99.90;;;;;;10483250;28;20238;-83
2022/03/16 17:30:09;;;;;;;19.77;17.83;;;12.30;99.90;;;;;;10494116;28;20288;-82
2022/03/16 17:35:12;;;;;;;23.93;21.53;;;12.20;99.90;;;;;;10481574;28;20308;-82
2022/03/16 17:40:17;;;;;;;24.30;21.80;;;12.20;99.90;;;;;;10448322;28;20263;-82
2022/03/16 17:45:32;;;;;;;21.60;19.40;;;12.20;99.90;;;;;;10461302;28;20256;-82
2022/03/16 17:50:40;;;;;;;22.00;19.93;;;12.10;99.90;;;;;;10481377;28;20668;-83
2022/03/16 18:01:07;;;;;;;22.90;20.57;;;12.00;99.90;;;;;;10510496;28;20220;-83
2022/03/16 18:06:11;;;;;;;21.53;19.53;;;12.00;99.90;;;;;;10455864;28;20332;-83
2022/03/16 18:16:34;;;;;;;24.27;21.40;;;12.00;99.90;;;;;;10485709;28;20250;-82
2022/03/16 18:21:36;;;;;;;22.00;19.90;;;11.90;99.90;;;;;;10467418;28;21096;-83
2022/03/16 18:26:40;;;;;;;22.50;20.30;;;11.90;99.90;;;;;;10500267;28;20201;-82
2022/03/16 18:31:42;;;;;;;21.70;19.50;;;11.90;99.90;;;;;;10493349;28;20227;-82
2022/03/16 18:36:44;;;;;;;23.37;20.67;;;11.80;99.90;;;;;;10501270;28;20719;-81
2022/03/16 18:41:49;;;;;;;23.23;20.93;;;11.80;99.90;;;;;;10503078;28;20225;-82
2022/03/16 18:46:52;;;;;;;21.90;19.80;;;11.80;99.90;;;;;;10501882;28;20189;-82
2022/03/16 18:57:15;;;;;;;22.97;20.77;;;11.70;99.90;;;;;;10526741;28;20192;-82
2022/03/16 19:02:19;;;;;;;23.90;21.40;;;11.70;99.90;;;;;;10503421;28;20220;-82
2022/03/16 19:07:21;;;;;;;25.77;23.27;;;11.60;99.90;;;;;;10514976;28;20203;-82
2022/03/16 19:17:45;;;;;;;24.23;21.70;;;11.40;99.90;;;;;;10521465;28;20281;-82
2022/03/16 19:22:47;;;;;;;24.27;21.93;;;11.30;99.90;;;;;;10488246;28;20220;-83
2022/03/16 19:27:51;;;;;;;25.77;23.27;;;11.20;99.90;;;;;;10490743;28;20215;-82
2022/03/16 19:32:53;;;;;;;26.50;23.90;;;11.20;99.90;;;;;;10512914;28;20280;-82
2022/03/16 19:37:56;;;;;;;26.63;23.87;;;11.10;99.90;;;;;;10490681;28;20215;-81
2022/03/16 19:42:59;;;;;;;27.50;24.83;;;11.10;99.90;;;;;;10476354;28;20213;-82
2022/03/16 19:48:02;;;;;;;29.70;26.70;;;11.10;99.90;;;;;;10515099;28;20206;-82
2022/03/16 19:53:04;;;;;;;30.03;27.00;;;11.00;99.90;;;;;;10485355;28;20250;-81
2022/03/16 19:58:12;;;;;;;33.57;30.37;;;11.10;99.90;;;;;;10519617;28;20790;-82
2022/03/16 20:03:16;;;;;;;31.93;28.83;;;11.10;99.90;;;;;;10519374;28;20307;-83
2022/03/16 20:08:18;;;;;;;29.80;26.90;;;11.10;99.90;;;;;;10505121;28;20205;-83
2022/03/16 20:13:21;;;;;;;33.77;30.40;;;11.00;99.90;;;;;;10525635;28;20695;-83
2022/03/16 20:18:24;;;;;;;29.83;26.93;;;11.00;99.90;;;;;;10493346;28;20813;-81
2022/03/16 20:23:27;;;;;;;33.07;29.70;;;11.00;99.90;;;;;;10519888;28;20255;-82
2022/03/16 20:28:31;;;;;;;30.93;27.87;;;10.90;99.90;;;;;;10491022;28;20264;-81
2022/03/16 20:33:33;;;;;;;34.50;30.90;;;10.80;99.90;;;;;;10531018;28;20223;-80
2022/03/16 20:38:36;;;;;;;31.00;28.07;;;10.70;99.90;;;;;;10518937;28;20193;-81
2022/03/16 20:43:40;;;;;;;36.30;32.43;;;10.70;99.90;;;;;;10546410;28;20303;-81
2022/03/16 20:48:43;;;;;;;32.23;28.93;;;10.60;99.90;;;;;;10511987;28;20584;-82
2022/03/16 20:53:46;;;;;;;32.87;29.57;;;10.50;99.90;;;;;;10523387;22;20325;-80
2022/03/16 21:04:49;;;;;;;33.30;30.00;;;10.40;99.90;;;;;;10446752;28;20221;-83
2022/03/16 21:09:52;;;;;;;34.47;31.07;;;10.30;99.90;;;;;;10432869;28;20201;-81
2022/03/16 21:15:05;;;;;;;36.83;33.33;;;10.30;99.90;;;;;;10419141;28;20650;-83
2022/03/16 21:20:15;;;;;;;34.63;31.10;;;10.30;99.90;;;;;;10427011;28;20251;-81
2022/03/16 21:25:48;;;;;;;;;;;;;;;;;;;;;
2022/03/16 21:31:03;;;;;;;32.37;29.27;;;10.20;99.90;;;;;;10426328;28;20526;-80
2022/03/16 21:36:09;;;;;;;34.70;31.10;;;10.10;99.90;;;;;;10425545;28;20255;-82
2022/03/16 21:47:25;;;;;;;;;;;;;;;;;;;;;
2022/03/16 21:52:45;;;;;;;34.47;31.00;;;10.00;99.90;;;;;;10417906;28;20216;-85
2022/03/16 21:57:48;;;;;;;33.20;29.90;;;9.90;99.90;;;;;;10451489;28;20212;-84
2022/03/16 22:02:50;;;;;;;36.17;32.63;;;9.90;99.90;;;;;;10435343;28;20312;-81
2022/03/16 22:07:53;;;;;;;33.43;30.13;;;9.90;99.90;;;;;;10446998;28;20673;-82
2022/03/16 22:12:57;;;;;;;36.30;32.60;;;9.90;99.90;;;;;;10449991;28;20232;-82
2022/03/16 22:18:02;;;;;;;36.90;33.07;;;9.90;99.90;;;;;;10466646;28;20193;-86
2022/03/16 22:23:06;;;;;;;36.03;32.40;;;9.90;99.90;;;;;;10444117;28;20758;-82
2022/03/16 22:28:08;;;;;;;55.70;49.70;;;9.90;99.90;;;;;;10474932;28;20205;-81
2022/03/16 22:33:10;;;;;;;51.07;45.47;;;9.90;99.90;;;;;;10453201;28;20220;-80
2022/03/16 22:38:14;;;;;;;43.30;38.80;;;9.90;99.90;;;;;;10440949;28;20212;-81
2022/03/16 22:43:16;;;;;;;37.77;33.87;;;9.90;99.90;;;;;;10424342;28;20221;-81
2022/03/16 22:48:18;;;;;;;37.77;33.90;;;9.90;99.90;;;;;;10445651;28;20270;-82
2022/03/16 22:53:22;;;;;;;39.00;35.20;;;9.90;99.90;;;;;;10427041;28;20232;-83
2022/03/16 22:58:24;;;;;;;35.97;32.53;;;10.00;99.90;;;;;;10427629;28;20217;-81
2022/03/16 23:03:26;;;;;;;34.93;31.50;;;9.90;99.90;;;;;;10424907;28;20321;-83
2022/03/16 23:08:30;;;;;;;39.73;35.87;;;9.90;99.90;;;;;;10426373;28;20296;-82
2022/03/16 23:13:41;;;;;;;39.70;36.00;;;9.80;99.90;;;;;;10457268;28;20221;-83
2022/03/16 23:18:44;;;;;;;37.93;34.17;;;9.90;99.90;;;;;;10405473;28;20205;-81
2022/03/16 23:23:47;;;;;;;37.40;33.67;;;9.90;99.90;;;;;;10440721;28;20224;-82
2022/03/16 23:28:49;;;;;;;37.03;33.27;;;9.80;99.90;;;;;;10441553;28;20202;-83
2022/03/16 23:33:51;;;;;;;37.30;33.60;;;9.80;99.90;;;;;;10426411;28;20248;-83
2022/03/16 23:38:55;;;;;;;36.43;32.70;;;9.70;99.90;;;;;;10442277;28;20269;-81
2022/03/16 23:43:57;;;;;;;36.70;32.90;;;9.70;99.90;;;;;;10445187;28;20855;-83
2022/03/16 23:49:02;;;;;;;38.93;35.13;;;9.70;99.90;;;;;;10432641;28;20580;-83
2022/03/16 23:54:05;;;;;;;36.90;33.33;;;9.70;99.90;;;;;;10458410;28;20233;-83
2022/03/16 23:59:07;;;;;;;38.07;34.30;;;9.70;99.90;;;;;;10449120;28;20284;-83
